sensor_id;sensor_type;location;lat;lon;timestamp;temperature;humidity
64209;DHT22;50527;52.414;13.226;2022-10-16T00:01:27;14.20;99.90
64209;DHT22;50527;52.414;13.226;2022-10-16T00:03:53;14.20;99.90
64209;DHT22;50527;52.414;13.226;2022-10-16T00:06:20;14.20;99.90
64209;DHT22;50527;52.414;13.226;2022-10-16T00:08:46;14.20;99.90
64209;DHT22;50527;52.414;13.226;2022-10-16T00:11:15;14.30;99.90
64209;DHT22;50527;52.414;13.226;2022-10-16T00:13:42;14.20;99.90
64209;DHT22;50527;52.414;13.226;2022-10-16T00:16:09;14.20;99.90
64209;DHT22;50527;52.414;13.226;2022-10-16T00:18:36;14.20;99.90
64209;DHT22;50527;52.414;13.226;2022-10-16T00:21:10;14.20;99.90
64209;DHT22;50527;52.414;13.226;2022-10-16T00:23:37;14.20;99.90
64209;DHT22;50527;52.414;13.226;2022-10-16T00:26:06;14.20;99.90
64209;DHT22;50527;52.414;13.226;2022-10-16T00:28:34;14.20;99.90
64209;DHT22;50527;52.414;13.226;2022-10-16T00:31:03;14.30;99.90
64209;DHT22;50527;52.414;13.226;2022-10-16T00:33:29;14.30;99.90
64209;DHT22;50527;52.414;13.226;2022-10-16T00:35:58;14.30;99.90
64209;DHT22;50527;52.414;13.226;2022-10-16T00:38:24;14.30;99.90
64209;DHT22;50527;52.414;13.226;2022-10-16T00:40:49;14.30;99.90
64209;DHT22;50527;52.414;13.226;2022-10-16T00:43:42;14.40;99.90
64209;DHT22;50527;52.414;13.226;2022-10-16T00:46:24;14.40;99.90
64209;DHT22;50527;52.414;13.226;2022-10-16T00:49:11;14.50;99.90
64209;DHT22;50527;52.414;13.226;2022-10-16T00:51:46;14.50;99.90
64209;DHT22;50527;52.414;13.226;2022-10-16T00:54:22;14.60;99.90
64209;DHT22;50527;52.414;13.226;2022-10-16T00:56:49;14.60;99.90
64209;DHT22;50527;52.414;13.226;2022-10-16T00:59:21;14.60;99.90
64209;DHT22;50527;52.414;13.226;2022-10-16T01:01:48;14.70;99.90
64209;DHT22;50527;52.414;13.226;2022-10-16T01:04:13;14.70;99.90
64209;DHT22;50527;52.414;13.226;2022-10-16T01:06:51;14.70;99.90
64209;DHT22;50527;52.414;13.226;2022-10-16T01:09:22;14.70;99.90
64209;DHT22;50527;52.414;13.226;2022-10-16T01:17:32;14.70;99.90
64209;DHT22;50527;52.414;13.226;2022-10-16T01:20:11;14.70;99.90
64209;DHT22;50527;52.414;13.226;2022-10-16T01:23:02;14.70;99.90
64209;DHT22;50527;52.414;13.226;2022-10-16T01:28:16;14.60;99.90
64209;DHT22;50527;52.414;13.226;2022-10-16T01:30:45;14.60;99.90
64209;DHT22;50527;52.414;13.226;2022-10-16T01:33:19;14.50;99.90
64209;DHT22;50527;52.414;13.226;2022-10-16T01:35:52;14.50;99.90
64209;DHT22;50527;52.414;13.226;2022-10-16T01:38:34;14.40;99.90
64209;DHT22;50527;52.414;13.226;2022-10-16T01:41:26;14.40;99.90
64209;DHT22;50527;52.414;13.226;2022-10-16T01:46:26;14.30;99.90
64209;DHT22;50527;52.414;13.226;2022-10-16T01:48:52;14.30;99.90
64209;DHT22;50527;52.414;13.226;2022-10-16T01:51:19;14.30;99.90
64209;DHT22;50527;52.414;13.226;2022-10-16T01:53:50;14.30;99.90
64209;DHT22;50527;52.414;13.226;2022-10-16T01:56:17;14.30;99.90
64209;DHT22;50527;52.414;13.226;2022-10-16T01:58:47;14.30;99.90
64209;DHT22;50527;52.414;13.226;2022-10-16T02:01:16;14.30;99.90
64209;DHT22;50527;52.414;13.226;2022-10-16T02:03:44;14.30;99.90
64209;DHT22;50527;52.414;13.226;2022-10-16T02:06:11;14.30;99.90
64209;DHT22;50527;52.414;13.226;2022-10-16T02:08:37;14.30;99.90
64209;DHT22;50527;52.414;13.226;2022-10-16T02:11:05;14.30;99.90
64209;DHT22;50527;52.414;13.226;2022-10-16T02:13:48;14.30;99.90
64209;DHT22;50527;52.414;13.226;2022-10-16T02:16:14;14.30;99.90
64209;DHT22;50527;52.414;13.226;2022-10-16T02:18:41;14.30;99.90
64209;DHT22;50527;52.414;13.226;2022-10-16T02:21:16;14.30;99.90
64209;DHT22;50527;52.414;13.226;2022-10-16T02:26:36;14.40;99.90
64209;DHT22;50527;52.414;13.226;2022-10-16T02:29:08;14.40;99.90
64209;DHT22;50527;52.414;13.226;2022-10-16T02:31:40;14.40;99.90
64209;DHT22;50527;52.414;13.226;2022-10-16T02:34:06;14.40;99.90
64209;DHT22;50527;52.414;13.226;2022-10-16T02:36:34;14.40;99.90
64209;DHT22;50527;52.414;13.226;2022-10-16T02:39:02;14.40;99.90
64209;DHT22;50527;52.414;13.226;2022-10-16T02:41:30;14.40;99.90
64209;DHT22;50527;52.414;13.226;2022-10-16T02:43:55;14.40;99.90
64209;DHT22;50527;52.414;13.226;2022-10-16T02:46:21;14.40;99.90
64209;DHT22;50527;52.414;13.226;2022-10-16T02:48:47;14.40;99.90
64209;DHT22;50527;52.414;13.226;2022-10-16T02:51:12;14.40;99.90
64209;DHT22;50527;52.414;13.226;2022-10-16T02:53:38;14.40;99.90
64209;DHT22;50527;52.414;13.226;2022-10-16T02:56:03;14.40;99.90
64209;DHT22;50527;52.414;13.226;2022-10-16T02:58:29;14.40;99.90
64209;DHT22;50527;52.414;13.226;2022-10-16T03:00:55;14.40;99.90
64209;DHT22;50527;52.414;13.226;2022-10-16T03:03:20;14.30;99.90
64209;DHT22;50527;52.414;13.226;2022-10-16T03:05:46;14.30;99.90
64209;DHT22;50527;52.414;13.226;2022-10-16T03:08:12;14.30;99.90
64209;DHT22;50527;52.414;13.226;2022-10-16T03:10:38;14.30;99.90
64209;DHT22;50527;52.414;13.226;2022-10-16T03:13:04;14.30;99.90
64209;DHT22;50527;52.414;13.226;2022-10-16T03:15:29;14.20;99.90
64209;DHT22;50527;52.414;13.226;2022-10-16T03:17:57;14.20;99.90
64209;DHT22;50527;52.414;13.226;2022-10-16T03:20:23;14.20;99.90
64209;DHT22;50527;52.414;13.226;2022-10-16T03:22:49;14.20;99.90
64209;DHT22;50527;52.414;13.226;2022-10-16T03:25:14;14.20;99.90
64209;DHT22;50527;52.414;13.226;2022-10-16T03:27:40;14.20;99.90
64209;DHT22;50527;52.414;13.226;2022-10-16T03:30:06;14.10;99.90
64209;DHT22;50527;52.414;13.226;2022-10-16T03:32:31;14.10;99.90
64209;DHT22;50527;52.414;13.226;2022-10-16T03:34:57;14.10;99.90
64209;DHT22;50527;52.414;13.226;2022-10-16T03:37:23;14.10;99.90
64209;DHT22;50527;52.414;13.226;2022-10-16T03:39:48;14.10;99.90
64209;DHT22;50527;52.414;13.226;2022-10-16T03:42:14;14.00;99.90
64209;DHT22;50527;52.414;13.226;2022-10-16T03:44:39;14.00;99.90
64209;DHT22;50527;52.414;13.226;2022-10-16T03:47:05;14.00;99.90
64209;DHT22;50527;52.414;13.226;2022-10-16T03:49:30;14.00;99.90
64209;DHT22;50527;52.414;13.226;2022-10-16T03:51:56;14.00;99.90
64209;DHT22;50527;52.414;13.226;2022-10-16T03:54:21;14.00;99.90
64209;DHT22;50527;52.414;13.226;2022-10-16T03:56:47;14.00;99.90
64209;DHT22;50527;52.414;13.226;2022-10-16T03:59:13;14.00;99.90
64209;DHT22;50527;52.414;13.226;2022-10-16T04:01:38;14.00;99.90
64209;DHT22;50527;52.414;13.226;2022-10-16T04:04:04;14.00;99.90
64209;DHT22;50527;52.414;13.226;2022-10-16T04:06:30;14.00;99.90
64209;DHT22;50527;52.414;13.226;2022-10-16T04:08:55;14.00;99.90
64209;DHT22;50527;52.414;13.226;2022-10-16T04:11:21;14.00;99.90
64209;DHT22;50527;52.414;13.226;2022-10-16T04:13:46;14.00;99.90
64209;DHT22;50527;52.414;13.226;2022-10-16T04:16:12;14.00;99.90
64209;DHT22;50527;52.414;13.226;2022-10-16T04:18:37;14.00;99.90
64209;DHT22;50527;52.414;13.226;2022-10-16T04:21:04;14.00;99.90
64209;DHT22;50527;52.414;13.226;2022-10-16T04:23:30;14.00;99.90
64209;DHT22;50527;52.414;13.226;2022-10-16T04:25:56;14.00;99.90
64209;DHT22;50527;52.414;13.226;2022-10-16T04:28:21;14.00;99.90
64209;DHT22;50527;52.414;13.226;2022-10-16T04:30:46;14.00;99.90
64209;DHT22;50527;52.414;13.226;2022-10-16T04:33:12;13.90;99.90
64209;DHT22;50527;52.414;13.226;2022-10-16T04:35:38;13.90;99.90
64209;DHT22;50527;52.414;13.226;2022-10-16T04:38:04;13.90;99.90
64209;DHT22;50527;52.414;13.226;2022-10-16T04:40:29;13.90;99.90
64209;DHT22;50527;52.414;13.226;2022-10-16T04:42:58;13.90;99.90
64209;DHT22;50527;52.414;13.226;2022-10-16T04:45:24;13.80;99.90
64209;DHT22;50527;52.414;13.226;2022-10-16T04:47:49;13.80;99.90
64209;DHT22;50527;52.414;13.226;2022-10-16T04:50:15;13.80;99.90
64209;DHT22;50527;52.414;13.226;2022-10-16T04:52:40;13.80;99.90
64209;DHT22;50527;52.414;13.226;2022-10-16T04:55:06;13.80;99.90
64209;DHT22;50527;52.414;13.226;2022-10-16T04:57:32;13.80;99.90
64209;DHT22;50527;52.414;13.226;2022-10-16T04:59:58;13.80;99.90
64209;DHT22;50527;52.414;13.226;2022-10-16T05:02:24;13.80;99.90
64209;DHT22;50527;52.414;13.226;2022-10-16T05:04:50;13.70;99.90
64209;DHT22;50527;52.414;13.226;2022-10-16T05:07:16;13.80;99.90
64209;DHT22;50527;52.414;13.226;2022-10-16T05:09:41;13.80;99.90
64209;DHT22;50527;52.414;13.226;2022-10-16T05:12:07;13.80;99.90
64209;DHT22;50527;52.414;13.226;2022-10-16T05:14:32;13.70;99.90
64209;DHT22;50527;52.414;13.226;2022-10-16T05:16:59;13.80;99.90
64209;DHT22;50527;52.414;13.226;2022-10-16T05:19:25;13.70;99.90
64209;DHT22;50527;52.414;13.226;2022-10-16T05:21:50;13.70;99.90
64209;DHT22;50527;52.414;13.226;2022-10-16T05:24:16;13.80;99.90
64209;DHT22;50527;52.414;13.226;2022-10-16T05:26:41;13.80;99.90
64209;DHT22;50527;52.414;13.226;2022-10-16T05:29:07;13.70;99.90
64209;DHT22;50527;52.414;13.226;2022-10-16T05:31:32;13.80;99.90
64209;DHT22;50527;52.414;13.226;2022-10-16T05:33:59;13.70;99.90
64209;DHT22;50527;52.414;13.226;2022-10-16T05:36:25;13.70;99.90
64209;DHT22;50527;52.414;13.226;2022-10-16T05:38:51;13.70;99.90
64209;DHT22;50527;52.414;13.226;2022-10-16T05:41:17;13.70;99.90
64209;DHT22;50527;52.414;13.226;2022-10-16T05:43:47;13.70;99.90
64209;DHT22;50527;52.414;13.226;2022-10-16T05:46:13;13.80;99.90
64209;DHT22;50527;52.414;13.226;2022-10-16T05:48:38;13.70;99.90
64209;DHT22;50527;52.414;13.226;2022-10-16T05:51:06;13.80;99.90
64209;DHT22;50527;52.414;13.226;2022-10-16T05:53:33;13.80;99.90
64209;DHT22;50527;52.414;13.226;2022-10-16T05:55:59;13.90;99.90
64209;DHT22;50527;52.414;13.226;2022-10-16T05:58:28;13.90;99.90
64209;DHT22;50527;52.414;13.226;2022-10-16T06:03:20;13.90;99.90
64209;DHT22;50527;52.414;13.226;2022-10-16T06:05:46;13.90;99.90
64209;DHT22;50527;52.414;13.226;2022-10-16T06:08:11;13.90;99.90
64209;DHT22;50527;52.414;13.226;2022-10-16T06:10:36;13.90;99.90
64209;DHT22;50527;52.414;13.226;2022-10-16T06:13:02;13.90;99.90
64209;DHT22;50527;52.414;13.226;2022-10-16T06:15:27;13.90;99.90
64209;DHT22;50527;52.414;13.226;2022-10-16T06:17:53;14.00;99.90
64209;DHT22;50527;52.414;13.226;2022-10-16T06:20:18;14.00;99.90
64209;DHT22;50527;52.414;13.226;2022-10-16T06:22:44;14.00;99.90
64209;DHT22;50527;52.414;13.226;2022-10-16T06:25:09;14.00;99.90
64209;DHT22;50527;52.414;13.226;2022-10-16T06:27:35;14.00;99.90
64209;DHT22;50527;52.414;13.226;2022-10-16T06:30:00;14.10;99.90
64209;DHT22;50527;52.414;13.226;2022-10-16T06:32:27;14.10;99.90
64209;DHT22;50527;52.414;13.226;2022-10-16T06:34:52;14.10;99.90
64209;DHT22;50527;52.414;13.226;2022-10-16T06:37:18;14.10;99.90
64209;DHT22;50527;52.414;13.226;2022-10-16T06:39:43;14.10;99.90
64209;DHT22;50527;52.414;13.226;2022-10-16T06:42:09;14.10;99.90
64209;DHT22;50527;52.414;13.226;2022-10-16T06:44:34;14.20;99.90
64209;DHT22;50527;52.414;13.226;2022-10-16T06:47:00;14.20;99.90
64209;DHT22;50527;52.414;13.226;2022-10-16T06:49:25;14.20;99.90
64209;DHT22;50527;52.414;13.226;2022-10-16T06:51:51;14.30;99.90
64209;DHT22;50527;52.414;13.226;2022-10-16T06:54:16;14.30;99.90
64209;DHT22;50527;52.414;13.226;2022-10-16T06:56:43;14.40;99.90
64209;DHT22;50527;52.414;13.226;2022-10-16T06:59:08;14.40;99.90
64209;DHT22;50527;52.414;13.226;2022-10-16T07:01:34;14.50;99.90
64209;DHT22;50527;52.414;13.226;2022-10-16T07:04:00;14.50;99.90
64209;DHT22;50527;52.414;13.226;2022-10-16T07:06:27;14.60;99.90
64209;DHT22;50527;52.414;13.226;2022-10-16T07:08:52;14.60;99.90
64209;DHT22;50527;52.414;13.226;2022-10-16T07:11:20;14.80;99.90
64209;DHT22;50527;52.414;13.226;2022-10-16T07:13:47;14.80;99.90
64209;DHT22;50527;52.414;13.226;2022-10-16T07:16:16;14.90;99.90
64209;DHT22;50527;52.414;13.226;2022-10-16T07:18:43;15.00;99.90
64209;DHT22;50527;52.414;13.226;2022-10-16T07:21:13;15.20;99.90
64209;DHT22;50527;52.414;13.226;2022-10-16T07:23:39;15.30;99.90
64209;DHT22;50527;52.414;13.226;2022-10-16T07:26:06;15.50;99.90
64209;DHT22;50527;52.414;13.226;2022-10-16T07:28:33;15.70;99.90
64209;DHT22;50527;52.414;13.226;2022-10-16T07:31:03;15.90;99.90
64209;DHT22;50527;52.414;13.226;2022-10-16T07:33:31;15.90;99.90
64209;DHT22;50527;52.414;13.226;2022-10-16T07:35:56;15.90;99.90
64209;DHT22;50527;52.414;13.226;2022-10-16T07:38:22;15.90;99.90
64209;DHT22;50527;52.414;13.226;2022-10-16T07:40:47;15.90;99.90
64209;DHT22;50527;52.414;13.226;2022-10-16T07:43:13;15.90;99.90
64209;DHT22;50527;52.414;13.226;2022-10-16T07:45:47;15.90;99.90
64209;DHT22;50527;52.414;13.226;2022-10-16T07:48:13;15.90;99.90
64209;DHT22;50527;52.414;13.226;2022-10-16T07:50:39;15.80;99.90
64209;DHT22;50527;52.414;13.226;2022-10-16T07:53:04;15.90;99.90
64209;DHT22;50527;52.414;13.226;2022-10-16T07:55:30;15.90;99.90
64209;DHT22;50527;52.414;13.226;2022-10-16T07:57:55;15.80;99.90
64209;DHT22;50527;52.414;13.226;2022-10-16T08:00:21;15.80;99.90
64209;DHT22;50527;52.414;13.226;2022-10-16T08:02:46;15.80;99.90
64209;DHT22;50527;52.414;13.226;2022-10-16T08:05:12;15.90;99.90
64209;DHT22;50527;52.414;13.226;2022-10-16T08:07:37;15.90;99.90
64209;DHT22;50527;52.414;13.226;2022-10-16T08:10:03;16.00;99.90
64209;DHT22;50527;52.414;13.226;2022-10-16T08:12:29;16.00;99.90
64209;DHT22;50527;52.414;13.226;2022-10-16T08:14:54;16.10;99.90
64209;DHT22;50527;52.414;13.226;2022-10-16T08:17:20;16.10;99.90
64209;DHT22;50527;52.414;13.226;2022-10-16T08:19:46;16.20;99.90
64209;DHT22;50527;52.414;13.226;2022-10-16T08:22:13;16.30;99.90
64209;DHT22;50527;52.414;13.226;2022-10-16T08:24:38;16.40;99.90
64209;DHT22;50527;52.414;13.226;2022-10-16T08:27:04;16.50;99.90
64209;DHT22;50527;52.414;13.226;2022-10-16T08:29:29;16.60;99.90
64209;DHT22;50527;52.414;13.226;2022-10-16T08:31:55;16.70;99.90
64209;DHT22;50527;52.414;13.226;2022-10-16T08:34:20;16.80;99.90
64209;DHT22;50527;52.414;13.226;2022-10-16T08:36:46;16.90;99.90
64209;DHT22;50527;52.414;13.226;2022-10-16T08:39:11;16.90;99.90
64209;DHT22;50527;52.414;13.226;2022-10-16T08:41:53;17.00;99.90
64209;DHT22;50527;52.414;13.226;2022-10-16T08:45:04;16.90;99.90
64209;DHT22;50527;52.414;13.226;2022-10-16T08:50:40;17.00;99.90
64209;DHT22;50527;52.414;13.226;2022-10-16T08:53:09;16.90;99.90
64209;DHT22;50527;52.414;13.226;2022-10-16T08:55:46;17.00;99.90
64209;DHT22;50527;52.414;13.226;2022-10-16T08:58:16;17.00;99.90
64209;DHT22;50527;52.414;13.226;2022-10-16T09:00:44;17.10;99.90
64209;DHT22;50527;52.414;13.226;2022-10-16T09:03:14;17.20;99.90
64209;DHT22;50527;52.414;13.226;2022-10-16T09:05:57;17.40;99.30
64209;DHT22;50527;52.414;13.226;2022-10-16T09:08:29;17.70;98.10
64209;DHT22;50527;52.414;13.226;2022-10-16T09:13:48;18.00;95.10
64209;DHT22;50527;52.414;13.226;2022-10-16T09:16:30;18.10;94.60
64209;DHT22;50527;52.414;13.226;2022-10-16T09:19:24;18.10;94.20
64209;DHT22;50527;52.414;13.226;2022-10-16T09:21:53;18.20;94.20
64209;DHT22;50527;52.414;13.226;2022-10-16T09:24:25;18.30;93.90
64209;DHT22;50527;52.414;13.226;2022-10-16T09:26:51;18.60;92.90
64209;DHT22;50527;52.414;13.226;2022-10-16T09:29:19;18.80;91.00
64209;DHT22;50527;52.414;13.226;2022-10-16T09:31:46;18.80;90.70
64209;DHT22;50527;52.414;13.226;2022-10-16T09:34:33;18.90;90.10
64209;DHT22;50527;52.414;13.226;2022-10-16T09:37:02;18.80;90.00
64209;DHT22;50527;52.414;13.226;2022-10-16T09:39:28;18.70;90.50
64209;DHT22;50527;52.414;13.226;2022-10-16T09:41:55;19.00;89.80
64209;DHT22;50527;52.414;13.226;2022-10-16T09:44:30;19.40;88.00
64209;DHT22;50527;52.414;13.226;2022-10-16T09:47:15;19.60;86.00
64209;DHT22;50527;52.414;13.226;2022-10-16T09:49:55;19.40;84.20
64209;DHT22;50527;52.414;13.226;2022-10-16T09:52:22;19.20;85.70
64209;DHT22;50527;52.414;13.226;2022-10-16T09:54:57;19.10;86.90
64209;DHT22;50527;52.414;13.226;2022-10-16T09:57:24;19.00;87.20
64209;DHT22;50527;52.414;13.226;2022-10-16T09:59:51;19.00;88.10
64209;DHT22;50527;52.414;13.226;2022-10-16T10:02:19;19.00;86.80
64209;DHT22;50527;52.414;13.226;2022-10-16T10:04:52;19.00;87.00
64209;DHT22;50527;52.414;13.226;2022-10-16T10:07:27;19.00;87.00
64209;DHT22;50527;52.414;13.226;2022-10-16T10:09:54;19.10;86.20
64209;DHT22;50527;52.414;13.226;2022-10-16T10:12:25;19.10;84.60
64209;DHT22;50527;52.414;13.226;2022-10-16T10:14:55;19.20;85.20
64209;DHT22;50527;52.414;13.226;2022-10-16T10:17:27;19.20;82.90
64209;DHT22;50527;52.414;13.226;2022-10-16T10:19:58;19.20;82.20
64209;DHT22;50527;52.414;13.226;2022-10-16T10:31:03;19.30;81.50
64209;DHT22;50527;52.414;13.226;2022-10-16T10:33:42;19.30;82.10
64209;DHT22;50527;52.414;13.226;2022-10-16T10:36:14;19.40;80.50
64209;DHT22;50527;52.414;13.226;2022-10-16T10:38:58;19.40;79.30
64209;DHT22;50527;52.414;13.226;2022-10-16T10:41:56;19.50;78.00
64209;DHT22;50527;52.414;13.226;2022-10-16T10:44:27;19.50;79.30
64209;DHT22;50527;52.414;13.226;2022-10-16T10:49:50;19.70;78.40
64209;DHT22;50527;52.414;13.226;2022-10-16T10:53:30;19.80;75.80
64209;DHT22;50527;52.414;13.226;2022-10-16T10:55:49;19.80;76.00
64209;DHT22;50527;52.414;13.226;2022-10-16T11:01:12;20.10;73.10
64209;DHT22;50527;52.414;13.226;2022-10-16T11:06:43;19.70;73.20
64209;DHT22;50527;52.414;13.226;2022-10-16T11:09:20;20.00;73.10
64209;DHT22;50527;52.414;13.226;2022-10-16T11:11:48;20.40;71.10
64209;DHT22;50527;52.414;13.226;2022-10-16T11:17:44;21.00;69.60
64209;DHT22;50527;52.414;13.226;2022-10-16T11:22:48;20.70;68.20
64209;DHT22;50527;52.414;13.226;2022-10-16T11:28:18;20.40;67.00
64209;DHT22;50527;52.414;13.226;2022-10-16T11:31:08;20.20;65.20
64209;DHT22;50527;52.414;13.226;2022-10-16T11:33:38;20.10;65.50
64209;DHT22;50527;52.414;13.226;2022-10-16T11:36:27;19.90;65.70
64209;DHT22;50527;52.414;13.226;2022-10-16T11:39:24;19.90;65.50
64209;DHT22;50527;52.414;13.226;2022-10-16T11:42:00;19.90;65.20
64209;DHT22;50527;52.414;13.226;2022-10-16T11:45:00;19.90;66.00
64209;DHT22;50527;52.414;13.226;2022-10-16T11:47:45;20.00;66.50
64209;DHT22;50527;52.414;13.226;2022-10-16T11:50:32;19.90;65.70
64209;DHT22;50527;52.414;13.226;2022-10-16T11:53:29;19.90;65.50
64209;DHT22;50527;52.414;13.226;2022-10-16T11:55:58;19.80;65.80
64209;DHT22;50527;52.414;13.226;2022-10-16T11:58:31;19.70;66.70
64209;DHT22;50527;52.414;13.226;2022-10-16T12:03:45;19.80;66.30
64209;DHT22;50527;52.414;13.226;2022-10-16T12:09:30;19.90;64.90
64209;DHT22;50527;52.414;13.226;2022-10-16T12:11:56;19.90;64.50
64209;DHT22;50527;52.414;13.226;2022-10-16T12:19:30;19.70;64.30
64209;DHT22;50527;52.414;13.226;2022-10-16T12:21:59;19.90;63.90
64209;DHT22;50527;52.414;13.226;2022-10-16T12:24:37;19.90;63.90
64209;DHT22;50527;52.414;13.226;2022-10-16T12:27:05;20.00;64.30
64209;DHT22;50527;52.414;13.226;2022-10-16T12:29:44;20.10;62.60
64209;DHT22;50527;52.414;13.226;2022-10-16T12:35:01;20.30;61.50
64209;DHT22;50527;52.414;13.226;2022-10-16T12:37:36;20.40;62.20
64209;DHT22;50527;52.414;13.226;2022-10-16T12:40:15;20.20;62.30
64209;DHT22;50527;52.414;13.226;2022-10-16T12:42:41;20.20;63.50
64209;DHT22;50527;52.414;13.226;2022-10-16T12:45:28;20.30;62.30
64209;DHT22;50527;52.414;13.226;2022-10-16T12:47:55;20.40;62.60
64209;DHT22;50527;52.414;13.226;2022-10-16T12:50:37;20.50;61.30
64209;DHT22;50527;52.414;13.226;2022-10-16T12:53:17;20.50;61.10
64209;DHT22;50527;52.414;13.226;2022-10-16T12:55:52;20.50;60.40
64209;DHT22;50527;52.414;13.226;2022-10-16T12:58:39;20.50;60.40
64209;DHT22;50527;52.414;13.226;2022-10-16T13:01:22;20.60;60.80
64209;DHT22;50527;52.414;13.226;2022-10-16T13:09:29;20.50;60.00
64209;DHT22;50527;52.414;13.226;2022-10-16T13:12:25;20.40;61.00
64209;DHT22;50527;52.414;13.226;2022-10-16T13:15:16;20.40;61.00
64209;DHT22;50527;52.414;13.226;2022-10-16T13:18:15;20.40;60.50
64209;DHT22;50527;52.414;13.226;2022-10-16T13:23:47;20.20;61.90
64209;DHT22;50527;52.414;13.226;2022-10-16T13:26:23;20.10;61.90
64209;DHT22;50527;52.414;13.226;2022-10-16T13:28:51;20.10;62.70
64209;DHT22;50527;52.414;13.226;2022-10-16T13:31:22;20.10;63.00
64209;DHT22;50527;52.414;13.226;2022-10-16T13:33:55;20.00;63.60
64209;DHT22;50527;52.414;13.226;2022-10-16T13:36:27;20.00;62.90
64209;DHT22;50527;52.414;13.226;2022-10-16T13:39:06;20.00;63.00
64209;DHT22;50527;52.414;13.226;2022-10-16T13:41:32;19.90;63.60
64209;DHT22;50527;52.414;13.226;2022-10-16T13:43:57;19.90;63.90
64209;DHT22;50527;52.414;13.226;2022-10-16T13:46:24;20.00;64.00
64209;DHT22;50527;52.414;13.226;2022-10-16T13:48:58;20.10;64.00
64209;DHT22;50527;52.414;13.226;2022-10-16T13:51:24;20.10;63.50
64209;DHT22;50527;52.414;13.226;2022-10-16T13:53:50;20.10;63.00
64209;DHT22;50527;52.414;13.226;2022-10-16T13:56:18;20.10;62.80
64209;DHT22;50527;52.414;13.226;2022-10-16T13:58:44;20.10;62.80
64209;DHT22;50527;52.414;13.226;2022-10-16T14:01:28;20.20;62.80
64209;DHT22;50527;52.414;13.226;2022-10-16T14:04:09;20.20;62.60
64209;DHT22;50527;52.414;13.226;2022-10-16T14:06:36;20.10;61.60
64209;DHT22;50527;52.414;13.226;2022-10-16T14:09:07;20.10;62.40
64209;DHT22;50527;52.414;13.226;2022-10-16T14:11:41;20.00;60.90
64209;DHT22;50527;52.414;13.226;2022-10-16T14:14:11;20.10;61.70
64209;DHT22;50527;52.414;13.226;2022-10-16T14:16:40;20.10;61.20
64209;DHT22;50527;52.414;13.226;2022-10-16T14:19:18;20.20;61.20
64209;DHT22;50527;52.414;13.226;2022-10-16T14:21:44;20.10;61.60
64209;DHT22;50527;52.414;13.226;2022-10-16T14:24:13;20.10;61.60
64209;DHT22;50527;52.414;13.226;2022-10-16T14:26:43;20.10;60.50
64209;DHT22;50527;52.414;13.226;2022-10-16T14:29:18;20.20;59.50
64209;DHT22;50527;52.414;13.226;2022-10-16T14:31:55;20.20;59.70
64209;DHT22;50527;52.414;13.226;2022-10-16T14:34:36;20.10;59.80
64209;DHT22;50527;52.414;13.226;2022-10-16T14:37:28;20.00;60.10
64209;DHT22;50527;52.414;13.226;2022-10-16T14:39:55;20.00;59.10
64209;DHT22;50527;52.414;13.226;2022-10-16T14:42:23;19.90;59.90
64209;DHT22;50527;52.414;13.226;2022-10-16T14:44:54;19.80;60.90
64209;DHT22;50527;52.414;13.226;2022-10-16T14:47:22;19.70;61.30
64209;DHT22;50527;52.414;13.226;2022-10-16T14:49:52;19.70;60.70
64209;DHT22;50527;52.414;13.226;2022-10-16T14:52:20;19.60;60.60
64209;DHT22;50527;52.414;13.226;2022-10-16T14:54:48;19.60;61.10
64209;DHT22;50527;52.414;13.226;2022-10-16T14:57:18;19.50;61.20
64209;DHT22;50527;52.414;13.226;2022-10-16T14:59:45;19.50;60.90
64209;DHT22;50527;52.414;13.226;2022-10-16T15:02:21;19.50;60.90
64209;DHT22;50527;52.414;13.226;2022-10-16T15:04:48;19.40;61.40
64209;DHT22;50527;52.414;13.226;2022-10-16T15:07:14;19.40;61.20
64209;DHT22;50527;52.414;13.226;2022-10-16T15:09:40;19.30;60.60
64209;DHT22;50527;52.414;13.226;2022-10-16T15:12:06;19.30;59.50
64209;DHT22;50527;52.414;13.226;2022-10-16T15:14:31;19.30;60.70
64209;DHT22;50527;52.414;13.226;2022-10-16T15:16:57;19.20;60.40
64209;DHT22;50527;52.414;13.226;2022-10-16T15:19:22;19.20;60.40
64209;DHT22;50527;52.414;13.226;2022-10-16T15:21:48;19.20;60.50
64209;DHT22;50527;52.414;13.226;2022-10-16T15:24:14;19.00;61.70
64209;DHT22;50527;52.414;13.226;2022-10-16T15:26:40;18.90;62.50
64209;DHT22;50527;52.414;13.226;2022-10-16T15:29:06;18.70;63.50
64209;DHT22;50527;52.414;13.226;2022-10-16T15:31:32;18.60;64.20
64209;DHT22;50527;52.414;13.226;2022-10-16T15:33:57;18.50;65.80
64209;DHT22;50527;52.414;13.226;2022-10-16T15:36:33;18.50;64.90
64209;DHT22;50527;52.414;13.226;2022-10-16T15:41:36;18.20;67.80
64209;DHT22;50527;52.414;13.226;2022-10-16T15:44:01;18.00;68.20
64209;DHT22;50527;52.414;13.226;2022-10-16T15:46:27;18.00;72.40
64209;DHT22;50527;52.414;13.226;2022-10-16T15:48:56;17.80;75.00
64209;DHT22;50527;52.414;13.226;2022-10-16T15:51:22;17.70;77.60
64209;DHT22;50527;52.414;13.226;2022-10-16T15:53:47;17.70;77.60
64209;DHT22;50527;52.414;13.226;2022-10-16T15:56:14;17.60;79.50
64209;DHT22;50527;52.414;13.226;2022-10-16T15:58:39;17.40;81.60
64209;DHT22;50527;52.414;13.226;2022-10-16T16:01:05;17.30;81.40
64209;DHT22;50527;52.414;13.226;2022-10-16T16:03:32;17.10;79.40
64209;DHT22;50527;52.414;13.226;2022-10-16T16:05:58;17.00;80.50
64209;DHT22;50527;52.414;13.226;2022-10-16T16:08:24;16.90;82.90
64209;DHT22;50527;52.414;13.226;2022-10-16T16:11:00;16.80;85.60
64209;DHT22;50527;52.414;13.226;2022-10-16T16:13:26;16.70;88.20
64209;DHT22;50527;52.414;13.226;2022-10-16T16:15:52;16.60;87.70
64209;DHT22;50527;52.414;13.226;2022-10-16T16:18:17;16.50;87.50
64209;DHT22;50527;52.414;13.226;2022-10-16T16:20:43;16.40;89.10
64209;DHT22;50527;52.414;13.226;2022-10-16T16:23:09;16.30;87.10
64209;DHT22;50527;52.414;13.226;2022-10-16T16:25:34;16.20;89.60
64209;DHT22;50527;52.414;13.226;2022-10-16T16:28:00;16.10;89.90
64209;DHT22;50527;52.414;13.226;2022-10-16T16:30:25;16.00;88.50
64209;DHT22;50527;52.414;13.226;2022-10-16T16:32:51;15.90;89.30
64209;DHT22;50527;52.414;13.226;2022-10-16T16:35:16;15.90;90.60
64209;DHT22;50527;52.414;13.226;2022-10-16T16:37:41;15.80;90.00
64209;DHT22;50527;52.414;13.226;2022-10-16T16:40:07;15.70;89.80
64209;DHT22;50527;52.414;13.226;2022-10-16T16:42:32;15.60;90.30
64209;DHT22;50527;52.414;13.226;2022-10-16T16:44:58;15.60;90.80